Time;durP1;ratioP1;P1;durP2;ratioP2;P2;SDS_P1;SDS_P2;PMS_P1;PMS_P2;Temp;Humidity;BMP_temperature;BMP_pressure;BME280_temperature;BME280_humidity;BME280_pressure;Samples;Min_cycle;Max_cycle;Signal;HPM_P1;HPM_P2
2023/01/28 00:00:33;;;;;;;;;;;;;;;1.76;100.00;102611.63;10524467;28;19977;-75
2023/01/28 00:05:33;;;;;;;;;;;;;;;1.75;100.00;102612.38;10484844;28;19935;-75
2023/01/28 00:10:34;;;;;;;;;;;;;;;1.76;100.00;102612.53;10484834;28;19921;-76
2023/01/28 00:15:34;;;;;;;;;;;;;;;1.73;100.00;102607.03;10449653;28;19927;-75
2023/01/28 00:20:35;;;;;;;;;;;;;;;1.67;100.00;102618.34;10509577;28;20369;-75
2023/01/28 00:25:35;;;;;;;;;;;;;;;1.73;100.00;102616.47;10498301;28;19920;-75
2023/01/28 00:30:35;;;;;;;;;;;;;;;1.70;100.00;102598.06;10506694;28;20358;-75
2023/01/28 00:35:36;;;;;;;;;;;;;;;1.65;100.00;102594.94;10509928;28;19920;-75
2023/01/28 00:40:36;;;;;;;;;;;;;;;1.75;100.00;102594.31;10503253;28;19920;-75
2023/01/28 00:45:37;;;;;;;;;;;;;;;1.72;100.00;102600.03;10505494;28;19920;-75
2023/01/28 00:50:39;;;;;;;;;;;;;;;1.60;100.00;102604.75;10496389;28;19924;-76
2023/01/28 00:55:39;;;;;;;;;;;;;;;1.71;100.00;102598.19;10479137;28;19918;-76
2023/01/28 01:00:39;;;;;;;;;;;;;;;1.66;100.00;102603.63;10507743;28;19928;-75
2023/01/28 01:05:40;;;;;;;;;;;;;;;1.62;100.00;102615.25;10522315;28;19953;-76
2023/01/28 01:10:40;;;;;;;;;;;;;;;1.49;100.00;102617.19;10490287;28;19977;-75
2023/01/28 01:15:41;;;;;;;;;;;;;;;1.40;100.00;102628.31;10521955;28;19927;-75
2023/01/28 01:20:44;;;;;;;;;;;;;;;1.25;100.00;102627.53;10505010;28;19946;-75
2023/01/28 01:25:44;;;;;;;;;;;;;;;1.22;100.00;102636.56;10485452;28;20406;-75
2023/01/28 01:30:45;;;;;;;;;;;;;;;1.30;100.00;102635.75;10474304;28;19936;-74
2023/01/28 01:35:51;;;;;;;;;;;;;;;1.41;100.00;102626.69;10499577;28;19927;-75
2023/01/28 01:40:54;;;;;;;;;;;;;;;1.38;100.00;102628.91;10506835;28;19920;-75
2023/01/28 01:45:56;;;;;;;;;;;;;;;1.22;100.00;102624.59;10512905;28;20375;-75
2023/01/28 01:51:00;;;;;;;;;;;;;;;1.29;100.00;102628.75;10500450;28;19927;-75
2023/01/28 01:56:01;;;;;;;;;;;;;;;1.26;100.00;102628.41;10489166;28;19941;-75
2023/01/28 02:01:01;;;;;;;;;;;;;;;1.14;100.00;102631.44;10468116;28;19920;-76
2023/01/28 02:06:02;;;;;;;;;;;;;;;1.07;100.00;102630.59;10486182;28;19927;-75
2023/01/28 02:11:05;;;;;;;;;;;;;;;0.99;100.00;102635.78;10478660;28;19962;-76
2023/01/28 02:16:06;;;;;;;;;;;;;;;0.99;100.00;102643.50;10475691;28;20391;-75
2023/01/28 02:21:09;;;;;;;;;;;;;;;1.16;100.00;102637.69;10468678;28;19925;-75
2023/01/28 02:26:21;;;;;;;;;;;;;;;1.17;100.00;102636.03;10469993;28;20431;-75
2023/01/28 02:31:24;;;;;;;;;;;;;;;1.28;100.00;102639.81;10480792;28;20409;-75
2023/01/28 02:36:27;;;;;;;;;;;;;;;1.27;100.00;102640.56;10509406;28;19927;-75
2023/01/28 02:41:28;;;;;;;;;;;;;;;1.31;100.00;102643.69;10509212;28;19920;-75
2023/01/28 02:52:06;;;;;;;;;;;;;;;1.33;100.00;102648.09;10517032;28;19920;-75
2023/01/28 02:57:06;;;;;;;;;;;;;;;1.33;100.00;102642.94;10519518;28;19915;-75
2023/01/28 03:02:16;;;;;;;;;;;;;;;1.33;100.00;102643.84;10527675;28;19924;-75
2023/01/28 03:07:16;;;;;;;;;;;;;;;1.20;100.00;102644.13;10504878;28;19927;-75
2023/01/28 03:39:03;;;;;;;;;;;;;;;1.01;100.00;102659.16;10470765;28;19920;-75
2023/01/28 03:49:22;;;;;;;;;;;;;;;0.99;100.00;102668.38;10513435;28;19919;-75
2023/01/28 03:54:23;;;;;;;;;;;;;;;0.98;100.00;102657.16;10499760;28;20426;-75
2023/01/28 03:59:23;;;;;;;;;;;;;;;0.96;100.00;102663.78;10509065;28;19927;-75
2023/01/28 04:04:23;;;;;;;;;;;;;;;0.95;100.00;102661.97;10496035;28;20014;-75
2023/01/28 04:09:24;;;;;;;;;;;;;;;0.91;100.00;102667.50;10467605;28;19970;-75
2023/01/28 04:14:24;;;;;;;;;;;;;;;0.90;100.00;102664.72;10473784;28;19920;-76
2023/01/28 04:19:25;;;;;;;;;;;;;;;0.88;100.00;102674.88;10511332;28;19920;-75
2023/01/28 04:24:25;;;;;;;;;;;;;;;0.82;100.00;102684.47;10471040;28;19924;-75
2023/01/28 04:29:25;;;;;;;;;;;;;;;0.76;100.00;102694.97;10466028;28;19924;-75
2023/01/28 04:34:26;;;;;;;;;;;;;;;0.83;100.00;102688.91;10501164;28;19969;-75
2023/01/28 04:39:26;;;;;;;;;;;;;;;0.77;100.00;102690.75;10468877;28;19998;-75
2023/01/28 04:44:26;;;;;;;;;;;;;;;0.70;100.00;102683.97;10483077;28;20368;-75
2023/01/28 04:49:26;;;;;;;;;;;;;;;0.63;100.00;102682.34;10468434;28;19920;-75
2023/01/28 04:54:27;;;;;;;;;;;;;;;0.63;100.00;102678.81;10486847;28;19966;-74
2023/01/28 04:59:27;;;;;;;;;;;;;;;0.48;100.00;102678.88;10524721;28;19947;-75
2023/01/28 05:04:27;;;;;;;;;;;;;;;0.44;100.00;102689.56;10512995;28;20338;-75
2023/01/28 05:09:28;;;;;;;;;;;;;;;0.43;100.00;102677.41;10486285;28;19973;-75
2023/01/28 05:14:28;;;;;;;;;;;;;;;0.43;100.00;102682.56;10481444;28;19934;-75
2023/01/28 05:19:28;;;;;;;;;;;;;;;0.48;100.00;102680.53;10470966;28;20027;-75
2023/01/28 05:24:29;;;;;;;;;;;;;;;0.53;100.00;102684.56;10475269;28;19977;-75
2023/01/28 05:29:29;;;;;;;;;;;;;;;0.49;100.00;102678.13;10452404;28;19987;-77
2023/01/28 05:34:29;;;;;;;;;;;;;;;0.42;100.00;102680.72;10466670;28;19921;-75
2023/01/28 05:39:30;;;;;;;;;;;;;;;0.42;100.00;102702.28;10470867;28;20456;-75
2023/01/28 05:44:31;;;;;;;;;;;;;;;0.47;100.00;102707.94;10474990;28;20011;-76
2023/01/28 05:49:31;;;;;;;;;;;;;;;0.43;100.00;102703.16;10488714;28;19924;-75
2023/01/28 05:54:31;;;;;;;;;;;;;;;0.38;100.00;102697.50;10483776;28;19921;-76
2023/01/28 05:59:31;;;;;;;;;;;;;;;0.37;100.00;102708.53;10462549;28;20008;-75
2023/01/28 06:29:48;;;;;;;22.63;16.80;;;;;;;-0.27;100.00;102737.78;10515949;27;20482;-75
2023/01/28 06:34:49;;;;;;;28.98;16.88;;;;;;;-0.26;100.00;102729.31;10514433;27;20438;-75
2023/01/28 06:39:49;;;;;;;22.42;14.48;;;;;;;-0.18;100.00;102724.38;10511990;28;20152;-76
2023/01/28 06:44:50;;;;;;;24.63;15.18;;;;;;;-0.19;100.00;102734.47;10516124;27;20150;-75
2023/01/28 06:49:50;;;;;;;25.30;16.80;;;;;;;-0.20;100.00;102736.16;10514155;27;20040;-76
2023/01/28 06:54:51;;;;;;;28.42;14.90;;;;;;;-0.31;100.00;102737.41;10544994;27;20040;-76
2023/01/28 06:59:51;;;;;;;23.77;14.60;;;;;;;-0.23;100.00;102734.84;10516616;27;20033;-76
2023/01/28 07:04:52;;;;;;;23.45;16.58;;;;;;;-0.18;100.00;102734.66;10514201;28;20555;-75
2023/01/28 07:09:52;;;;;;;25.23;15.20;;;;;;;-0.01;100.00;102734.13;10517741;28;20048;-76
2023/01/28 07:14:53;;;;;;;21.35;13.45;;;;;;;0.02;100.00;102742.94;10516132;28;20052;-77
2023/01/28 07:19:53;;;;;;;29.00;15.57;;;;;;;-0.14;100.00;102743.66;10518586;28;20071;-75
2023/01/28 07:24:54;;;;;;;25.23;15.02;;;;;;;-0.22;100.00;102739.25;10514927;28;20064;-76
2023/01/28 07:29:54;;;;;;;25.15;15.65;;;;;;;-0.32;100.00;102735.56;10514067;28;20094;-76
2023/01/28 07:34:55;;;;;;;21.05;13.25;;;;;;;-0.20;100.00;102736.16;10513960;28;20070;-75
2023/01/28 07:39:55;;;;;;;24.60;16.30;;;;;;;-0.25;100.00;102729.53;10494645;28;20523;-76
2023/01/28 07:44:56;;;;;;;24.50;14.18;;;;;;;-0.24;100.00;102733.94;10514730;28;20067;-76
2023/01/28 07:49:56;;;;;;;24.27;13.88;;;;;;;-0.01;100.00;102741.84;10499470;28;20043;-76
2023/01/28 07:54:57;;;;;;;22.00;14.57;;;;;;;0.09;100.00;102750.66;10486224;28;20053;-76
2023/01/28 07:59:57;;;;;;;24.35;15.07;;;;;;;0.24;100.00;102756.75;10487172;28;20037;-76
2023/01/28 08:05:00;;;;;;;24.83;16.02;;;;;;;0.22;100.00;102765.94;10484962;28;20055;-76
2023/01/28 08:10:00;;;;;;;25.80;13.93;;;;;;;0.26;100.00;102768.16;10486555;28;20791;-76
2023/01/28 08:15:01;;;;;;;21.08;13.65;;;;;;;0.26;100.00;102756.19;10484814;28;20161;-76
2023/01/28 08:20:01;;;;;;;23.80;15.15;;;;;;;0.23;100.00;102776.41;10521859;28;20630;-76
2023/01/28 08:25:02;;;;;;;27.35;16.00;;;;;;;0.39;100.00;102771.47;10526474;28;20034;-75
2023/01/28 08:30:03;;;;;;;19.33;14.10;;;;;;;0.54;100.00;102790.38;10511213;28;20051;-75
2023/01/28 08:35:04;;;;;;;27.08;15.95;;;;;;;0.56;100.00;102794.06;10514342;28;20102;-76
2023/01/28 08:40:05;;;;;;;20.23;12.50;;;;;;;0.48;100.00;102810.28;10485265;28;20132;-75
2023/01/28 08:45:06;;;;;;;24.87;14.47;;;;;;;0.54;100.00;102810.09;10486287;28;20036;-76
2023/01/28 08:50:08;;;;;;;23.73;13.53;;;;;;;0.55;100.00;102818.00;10485875;28;20181;-77
2023/01/28 08:55:09;;;;;;;21.00;13.63;;;;;;;0.52;100.00;102825.34;10527145;28;20036;-77
2023/01/28 09:00:10;;;;;;;22.95;14.93;;;;;;;0.56;100.00;102829.25;10526742;28;20487;-77
2023/01/28 09:05:10;;;;;;;24.13;12.87;;;;;;;0.55;100.00;102828.31;10515775;28;20028;-77
2023/01/28 09:10:11;;;;;;;18.63;13.75;;;;;;;0.56;100.00;102840.44;10512476;28;20039;-76
2023/01/28 09:15:12;;;;;;;19.98;11.43;;;;;;;0.63;100.00;102843.75;10525808;28;20422;-77
2023/01/28 09:20:12;;;;;;;21.77;12.55;;;;;;;0.73;100.00;102845.06;10507076;28;20051;-76
2023/01/28 09:25:13;;;;;;;20.52;12.43;;;;;;;0.75;100.00;102860.69;10526299;28;20361;-76
2023/01/28 09:30:14;;;;;;;18.80;9.82;;;;;;;0.76;100.00;102848.75;10488814;28;20036;-76
2023/01/28 09:35:16;;;;;;;21.30;11.20;;;;;;;0.86;100.00;102867.16;10482463;28;20039;-77
2023/01/28 09:40:18;;;;;;;;;;;;;;;0.89;100.00;102857.19;10444188;28;20396;-77
2023/01/28 09:45:32;;;;;;;16.70;10.83;;;;;;;0.93;100.00;102859.41;10483166;28;20014;-77
2023/01/28 09:50:35;;;;;;;19.10;11.20;;;;;;;0.95;100.00;102873.41;10499894;28;20036;-77
2023/01/28 09:55:44;;;;;;;20.50;13.07;;;;;;;0.89;100.00;102870.09;10481322;28;20123;-77
2023/01/28 10:01:01;;;;;;;22.17;14.07;;;;;;;0.87;100.00;102879.28;10513485;28;20407;-76
2023/01/28 10:06:16;;;;;;;19.83;10.82;;;;;;;0.84;100.00;102868.63;10481773;28;20060;-77
2023/01/28 10:11:58;;;;;;;22.67;13.50;;;;;;;1.02;100.00;102860.50;10479871;28;20037;-77
2023/01/28 10:17:04;;;;;;;20.77;11.77;;;;;;;1.13;100.00;102856.56;10501358;28;20131;-76
2023/01/28 10:22:08;;;;;;;18.80;11.48;;;;;;;1.13;100.00;102864.31;10487804;28;20580;-76
2023/01/28 10:27:16;;;;;;;17.52;11.95;;;;;;;1.21;100.00;102872.03;10464356;28;20056;-76
2023/01/28 10:32:30;;;;;;;18.05;10.93;;;;;;;1.41;100.00;102871.81;10464994;28;20044;-77
2023/01/28 10:37:33;;;;;;;20.30;12.18;;;;;;;1.23;100.00;102863.75;10481021;28;20094;-77
2023/01/28 10:42:35;;;;;;;24.38;13.07;;;;;;;1.16;100.00;102868.94;10481049;28;20040;-76
2023/01/28 10:47:49;;;;;;;15.73;10.13;;;;;;;1.38;100.00;102869.78;10482124;28;20039;-77
2023/01/28 10:52:59;;;;;;;16.40;10.48;;;;;;;1.30;100.00;102876.63;10481407;28;20096;-76
2023/01/28 10:58:01;;;;;;;19.08;10.88;;;;;;;1.48;100.00;102871.78;10480682;28;20347;-76
2023/01/28 11:03:02;;;;;;;17.58;9.77;;;;;;;1.53;100.00;102862.91;10462659;28;20049;-76
2023/01/28 11:08:13;;;;;;;20.27;11.18;;;;;;;1.41;100.00;102876.97;10496176;28;20523;-76
2023/01/28 11:13:18;;;;;;;19.20;11.93;;;;;;;1.28;100.00;102879.75;10441694;28;20041;-75
2023/01/28 11:18:24;;;;;;;16.13;10.27;;;;;;;1.02;100.00;102877.59;10448340;28;20037;-75
2023/01/28 11:23:46;;;;;;;16.25;9.90;;;;;;;0.85;100.00;102866.22;10487936;27;20442;-76
2023/01/28 11:28:47;;;;;;;19.30;9.80;;;;;;;0.91;100.00;102872.84;10486914;28;20397;-75
2023/01/28 11:33:57;;;;;;;20.33;11.18;;;;;;;0.87;100.00;102876.72;10470958;28;20032;-76
2023/01/28 11:39:26;;;;;;;16.10;11.52;;;;;;;0.78;100.00;102878.19;10487227;28;20541;-76
2023/01/28 11:44:26;;;;;;;18.23;11.27;;;;;;;0.75;100.00;102875.25;10486702;28;20047;-76
2023/01/28 11:49:52;;;;;;;20.05;11.55;;;;;;;0.75;100.00;102872.69;10486136;28;20074;-75
2023/01/28 11:54:53;;;;;;;19.48;11.15;;;;;;;0.64;100.00;102864.59;10485215;28;20504;-76
2023/01/28 12:00:03;;;;;;;17.67;10.65;;;;;;;0.73;100.00;102855.38;10494914;28;20053;-76
2023/01/28 12:05:31;;;;;;;12.95;9.40;;;;;;;0.87;100.00;102850.94;10433785;28;20061;-75
2023/01/28 12:10:40;;;;;;;15.00;11.93;;;;;;;0.87;100.00;102843.19;10485823;28;20096;-76
2023/01/28 12:16:02;;;;;;;18.85;11.35;;;;;;;0.91;100.00;102835.09;10485719;28;20086;-78
2023/01/28 12:21:10;;;;;;;20.03;11.60;;;;;;;1.35;100.00;102807.50;10488216;28;20049;-76
2023/01/28 12:26:15;;;;;;;18.05;11.13;;;;;;;1.69;100.00;102813.97;10486069;28;20616;-77
2023/01/28 12:31:21;;;;;;;19.60;12.40;;;;;;;1.35;100.00;102796.28;10470320;27;20161;-76
2023/01/28 12:36:40;;;;;;;18.75;12.50;;;;;;;1.65;100.00;102777.31;10485179;28;20037;-76
2023/01/28 12:41:43;;;;;;;17.60;9.80;;;;;;;1.91;100.00;102762.19;10444370;28;20048;-76
2023/01/28 12:46:50;;;;;;;16.90;10.27;;;;;;;4.07;100.00;102739.66;10484148;28;20090;-76
2023/01/28 12:51:56;;;;;;;17.48;10.98;;;;;;;3.86;91.73;102734.84;10483823;28;20040;-77
2023/01/28 12:56:57;;;;;;;21.10;11.25;;;;;;;2.40;95.88;102756.44;10487462;28;20443;-76
2023/01/28 13:02:12;;;;;;;18.10;11.27;;;;;;;1.50;100.00;102763.56;10465941;28;20075;-76
2023/01/28 13:07:37;;;;;;;20.13;12.75;;;;;;;1.95;100.00;102785.03;10444684;28;20036;-77
2023/01/28 13:12:38;;;;;;;20.70;10.80;;;;;;;3.79;97.05;102767.88;10441268;28;20087;-76
2023/01/28 13:17:38;;;;;;;19.50;14.38;;;;;;;4.25;86.75;102784.75;10425868;28;20029;-77
2023/01/28 13:22:39;;;;;;;17.90;10.90;;;;;;;3.90;91.35;102783.63;10461585;28;20071;-77
2023/01/28 13:27:39;;;;;;;20.77;10.52;;;;;;;4.83;82.47;102794.09;10482530;28;20071;-77
2023/01/28 13:32:40;;;;;;;18.20;12.32;;;;;;;4.24;81.21;102805.31;10484288;28;20050;-76
2023/01/28 13:37:43;;;;;;;15.30;9.60;;;;;;;3.39;89.05;102797.28;10482954;28;20068;-76
2023/01/28 13:42:44;;;;;;;20.60;11.63;;;;;;;2.82;85.71;102794.63;10481165;28;20047;-76
2023/01/28 13:47:50;;;;;;;20.67;11.88;;;;;;;1.93;97.21;102803.69;10483673;28;20059;-76
2023/01/28 13:53:01;;;;;;;19.58;11.73;;;;;;;1.32;100.00;102801.97;10424715;28;20033;-76
2023/01/28 13:58:39;;;;;;;23.92;14.35;;;;;;;0.90;100.00;102804.88;10440048;28;20040;-76
2023/01/28 14:03:45;;;;;;;23.17;13.65;;;;;;;0.73;100.00;102795.16;10445279;28;20439;-76
2023/01/28 14:09:18;;;;;;;23.45;13.10;;;;;;;0.89;100.00;102782.44;10483305;28;20044;-76
2023/01/28 14:14:53;;;;;;;19.33;10.88;;;;;;;1.70;100.00;102771.00;10447451;28;20094;-77
2023/01/28 14:19:54;;;;;;;24.15;12.77;;;;;;;1.82;100.00;102768.88;10448736;28;20511;-76
2023/01/28 14:24:55;;;;;;;28.95;12.73;;;;;;;3.88;90.69;102752.41;10481445;28;20071;-76
2023/01/28 14:30:07;;;;;;;21.20;11.87;;;;;;;4.91;80.43;102737.78;10480227;28;20083;-77
2023/01/28 14:35:08;;;;;;;19.35;11.23;;;;;;;4.73;76.44;102730.72;10465009;28;20510;-76
2023/01/28 14:40:13;;;;;;;20.42;12.48;;;;;;;3.56;79.61;102731.78;10480410;28;20048;-76
2023/01/28 14:45:32;;;;;;;19.75;11.32;;;;;;;3.56;82.94;102733.44;10505783;28;20460;-76
2023/01/28 14:50:38;;;;;;;18.33;11.32;;;;;;;3.75;83.35;102736.31;10530398;28;20044;-76
2023/01/28 14:55:39;;;;;;;21.92;12.40;;;;;;;2.88;85.76;102745.25;10533353;28;20040;-76
2023/01/28 15:00:39;;;;;;;22.02;14.07;;;;;;;2.48;87.26;102754.69;10517723;28;20055;-75
2023/01/28 15:05:40;;;;;;;20.67;12.63;;;;;;;1.76;89.67;102759.69;10430431;28;20064;-76
2023/01/28 15:10:40;;;;;;;21.38;14.32;;;;;;;0.82;94.17;102755.00;10447393;28;20477;-75
2023/01/28 15:15:41;;;;;;;26.17;16.10;;;;;;;0.12;100.00;102772.56;10448576;28;20036;-76
2023/01/28 15:20:46;;;;;;;21.02;13.07;;;;;;;-0.41;100.00;102785.00;10429424;28;20384;-75
2023/01/28 15:25:46;;;;;;;20.73;14.30;;;;;;;-0.83;100.00;102775.66;10487575;28;20055;-76
2023/01/28 15:30:47;;;;;;;23.52;14.45;;;;;;;-1.22;100.00;102790.50;10455099;28;20127;-76
2023/01/28 15:35:51;;;;;;;21.65;16.80;;;;;;;-1.50;100.00;102795.63;10475515;28;20038;-75
2023/01/28 15:41:01;;;;;;;24.05;14.23;;;;;;;-1.73;100.00;102814.88;10527343;28;20799;-75
2023/01/28 15:46:01;;;;;;;25.92;16.00;;;;;;;-1.96;100.00;102811.22;10495311;27;20106;-75
2023/01/28 15:51:04;;;;;;;23.15;14.95;;;;;;;-2.11;100.00;102805.00;10484108;28;20378;-75
2023/01/28 15:56:09;;;;;;;23.30;15.57;;;;;;;-2.16;100.00;102810.28;10480342;28;20123;-76
2023/01/28 16:01:09;;;;;;;23.95;15.38;;;;;;;-2.32;100.00;102817.59;10530090;28;20054;-76
2023/01/28 16:06:33;;;;;;;30.70;17.50;;;;;;;-2.52;100.00;102826.16;10522407;28;20053;-75
2023/01/28 16:11:40;;;;;;;23.45;15.25;;;;;;;-2.76;100.00;102859.75;10481255;28;20056;-77
2023/01/28 16:16:41;;;;;;;28.33;16.80;;;;;;;-3.12;100.00;102865.28;10498959;28;20063;-75
2023/01/28 16:21:44;;;;;;;25.97;15.33;;;;;;;-3.14;100.00;102871.81;10480168;28;20082;-75
2023/01/28 16:26:57;;;;;;;41.17;25.38;;;;;;;-3.29;100.00;102871.59;10477495;28;20040;-75
2023/01/28 16:31:59;;;;;;;31.35;18.75;;;;;;;-3.52;100.00;102863.38;10485455;28;20052;-76
2023/01/28 16:37:00;;;;;;;25.27;16.20;;;;;;;-3.58;100.00;102867.66;10486634;28;20032;-75
2023/01/28 16:42:00;;;;;;;27.15;16.77;;;;;;;-3.50;100.00;102854.25;10486597;28;20045;-76
2023/01/28 16:47:03;;;;;;;34.33;19.60;;;;;;;-3.56;100.00;102845.75;10486049;28;20127;-75
2023/01/28 16:52:04;;;;;;;30.77;18.35;;;;;;;-3.72;100.00;102864.13;10483841;28;20562;-75
2023/01/28 16:57:04;;;;;;;25.50;16.70;;;;;;;-3.76;100.00;102863.50;10484456;28;20115;-75
2023/01/28 17:02:05;;;;;;;22.33;13.07;;;;;;;-3.99;100.00;102853.56;10455018;28;20067;-75
2023/01/28 17:07:06;;;;;;;26.23;16.23;;;;;;;-4.09;100.00;102855.56;10455030;28;20128;-76
2023/01/28 17:12:06;;;;;;;31.33;20.27;;;;;;;-4.35;100.00;102873.34;10441763;28;20049;-76
2023/01/28 17:17:07;;;;;;;35.07;19.43;;;;;;;-4.43;100.00;102864.59;10440516;28;20127;-76
2023/01/28 17:22:07;;;;;;;27.80;18.67;;;;;;;-4.33;100.00;102866.81;10449928;28;20522;-76
2023/01/28 17:27:08;;;;;;;30.97;18.40;;;;;;;-4.40;100.00;102869.22;10441139;28;20033;-76
2023/01/28 17:32:09;;;;;;;24.53;16.53;;;;;;;-4.51;100.00;102872.84;10441456;28;20095;-76
2023/01/28 17:37:09;;;;;;;23.53;14.07;;;;;;;-4.57;100.00;102858.50;10444877;28;20123;-76
2023/01/28 17:42:10;;;;;;;29.73;19.80;;;;;;;-4.67;100.00;102865.56;10426511;28;20041;-76
2023/01/28 17:47:10;;;;;;;36.03;19.33;;;;;;;-4.53;100.00;102858.91;10440339;28;20064;-76
2023/01/28 17:52:11;;;;;;;22.70;13.07;;;;;;;-4.55;100.00;102876.59;10441197;28;20120;-77
2023/01/28 17:57:11;;;;;;;31.10;21.03;;;;;;;-4.66;100.00;102879.25;10438961;28;20039;-76
2023/01/28 18:02:12;;;;;;;28.80;18.00;;;;;;;-4.70;100.00;102887.19;10439973;28;20508;-77
2023/01/28 18:07:12;;;;;;;37.50;21.00;;;;;;;-4.85;100.00;102914.97;10423987;28;20075;-77
2023/01/28 18:12:14;;;;;;;34.97;21.73;;;;;;;-5.02;100.00;102916.06;10438111;28;20041;-76
2023/01/28 18:17:14;;;;;;;28.35;17.30;;;;;;;-5.13;100.00;102912.69;10460302;28;20461;-77
2023/01/28 18:22:15;;;;;;;30.33;17.50;;;;;;;-5.03;100.00;102918.41;10480261;28;20044;-76
2023/01/28 18:27:15;;;;;;;38.33;22.60;;;;;;;-5.09;100.00;102920.09;10481056;28;20511;-76
2023/01/28 18:32:16;;;;;;;32.67;21.30;;;;;;;-5.00;100.00;102923.94;10480842;28;20036;-77
2023/01/28 18:37:16;;;;;;;37.83;22.37;;;;;;;-5.06;100.00;102936.75;10480114;28;20068;-76
2023/01/28 18:42:17;;;;;;;33.87;20.80;;;;;;;-5.10;100.00;102944.69;10462950;28;20055;-78
2023/01/28 18:47:20;;;;;;;31.90;22.23;;;;;;;-5.10;100.00;102943.78;10482078;28;20073;-75
2023/01/28 18:52:21;;;;;;;35.20;21.58;;;;;;;-5.07;100.00;102950.22;10479261;28;20041;-76
2023/01/28 18:57:21;;;;;;;33.23;20.40;;;;;;;-5.26;100.00;102941.56;10480987;28;20128;-76
2023/01/28 19:02:22;;;;;;;33.87;23.10;;;;;;;-5.37;100.00;102952.75;10484171;28;20044;-76
2023/01/28 19:07:24;;;;;;;30.52;20.52;;;;;;;-5.43;100.00;102943.31;10522623;28;20040;-77
2023/01/28 19:12:24;;;;;;;32.27;21.20;;;;;;;-5.39;100.00;102953.25;10491897;28;20124;-75
2023/01/28 19:17:25;;;;;;;35.20;25.97;;;;;;;-5.37;100.00;102939.09;10477485;28;20058;-76
2023/01/28 19:22:26;;;;;;;43.17;21.43;;;;;;;-5.38;100.00;102938.16;10481004;28;20054;-76
2023/01/28 19:27:26;;;;;;;36.50;22.47;;;;;;;-5.22;100.00;102925.97;10479590;28;20046;-77
2023/01/28 19:32:27;;;;;;;38.13;21.30;;;;;;;-5.25;100.00;102924.59;10480525;28;20044;-77
2023/01/28 19:37:27;;;;;;;39.73;23.77;;;;;;;-5.34;100.00;102942.09;10489710;28;20047;-77
2023/01/28 19:42:28;;;;;;;39.73;23.57;;;;;;;-5.36;100.00;102957.16;10486207;28;20041;-76
2023/01/28 19:47:28;;;;;;;32.70;23.27;;;;;;;-5.37;100.00;102947.66;10510711;28;20167;-76
2023/01/28 19:52:29;;;;;;;41.83;28.70;;;;;;;-5.54;100.00;102959.59;10443816;28;20045;-77
2023/01/28 19:57:30;;;;;;;41.83;26.13;;;;;;;-5.62;100.00;102961.94;10462143;28;20484;-77
2023/01/28 20:02:30;;;;;;;33.93;25.93;;;;;;;-5.49;100.00;102945.88;10483010;28;20068;-77
2023/01/28 20:07:31;;;;;;;40.50;24.87;;;;;;;-5.55;100.00;102945.00;10445140;28;20079;-76
2023/01/28 20:12:31;;;;;;;30.87;20.87;;;;;;;-5.56;100.00;102958.44;10491749;28;20086;-76
2023/01/28 20:17:32;;;;;;;38.60;22.67;;;;;;;-5.71;100.00;102967.34;10505958;28;20167;-76
2023/01/28 20:22:37;;;;;;;40.27;26.97;;;;;;;-5.70;100.00;102954.81;10428111;28;20128;-76
2023/01/28 20:27:37;;;;;;;48.13;31.42;;;;;;;-5.79;100.00;102954.41;10446906;28;20037;-76
2023/01/28 20:32:38;;;;;;;39.17;25.33;;;;;;;-5.73;100.00;102945.81;10427264;28;20481;-77
2023/01/28 20:37:39;;;;;;;40.83;25.27;;;;;;;-5.83;100.00;102939.34;10426496;28;20152;-76
2023/01/28 20:42:40;;;;;;;38.60;25.40;;;;;;;-5.78;100.00;102940.00;10445075;28;20168;-76
2023/01/28 20:47:40;;;;;;;44.47;26.17;;;;;;;-5.79;100.00;102943.25;10515104;28;20037;-76
2023/01/28 20:52:41;;;;;;;45.80;26.73;;;;;;;-5.81;100.00;102948.16;10486049;28;20079;-77
2023/01/28 20:57:41;;;;;;;51.60;31.93;;;;;;;-5.77;100.00;102944.41;10467343;28;20426;-77
2023/01/28 21:02:43;;;;;;;42.33;28.67;;;;;;;-5.81;100.00;102947.22;10491948;28;20127;-77
2023/01/28 21:07:44;;;;;;;48.13;29.73;;;;;;;-5.90;100.00;102929.84;10461096;28;20040;-77
2023/01/28 21:12:44;;;;;;;59.07;31.97;;;;;;;-5.85;100.00;102927.06;10433167;28;20072;-77
2023/01/28 21:17:45;;;;;;;36.17;25.67;;;;;;;-5.81;100.00;102911.50;10480899;28;20044;-77
2023/01/28 21:22:52;;;;;;;53.07;31.60;;;;;;;-5.81;100.00;102909.88;10485507;28;20083;-76
2023/01/28 21:27:52;;;;;;;49.70;32.88;;;;;;;-5.77;100.00;102908.69;10483294;28;20055;-76
2023/01/28 21:32:53;;;;;;;43.40;25.00;;;;;;;-5.86;100.00;102915.00;10484039;28;20127;-76
2023/01/28 21:37:54;;;;;;;60.67;32.57;;;;;;;-5.86;100.00;102903.19;10439834;28;20037;-76
2023/01/28 21:42:54;;;;;;;49.60;34.07;;;;;;;-5.87;100.00;102910.59;10442549;28;20121;-76
2023/01/28 21:47:55;;;;;;;50.37;32.33;;;;;;;-5.93;100.00;102901.34;10445084;28;20373;-76
2023/01/28 21:52:55;;;;;;;62.87;38.53;;;;;;;-5.88;100.00;102901.09;10435891;28;20051;-75
2023/01/28 21:59:26;;;;;;;53.20;32.93;;;;;;;-5.94;100.00;102898.59;10442064;28;20095;-76
2023/01/28 22:03:16;;;;;;;57.25;37.13;;;;;;;-5.94;100.00;102901.16;10436895;28;20036;-77
2023/01/28 22:08:17;;;;;;;60.80;38.07;;;;;;;-6.07;100.00;102908.66;10481763;28;20101;-76
2023/01/28 22:13:17;;;;;;;60.47;37.87;;;;;;;-6.16;100.00;102918.44;10519254;28;20127;-78
2023/01/28 22:18:18;;;;;;;54.43;39.73;;;;;;;-6.22;100.00;102918.44;10491550;28;20036;-76
2023/01/28 22:23:18;;;;;;;54.87;35.57;;;;;;;-6.25;100.00;102928.19;10463310;28;20127;-77
2023/01/28 22:28:19;;;;;;;59.63;38.77;;;;;;;-6.30;100.00;102928.22;10479729;28;20044;-76
2023/01/28 22:33:20;;;;;;;65.70;38.80;;;;;;;-6.41;100.00;102922.44;10481966;28;20044;-76
2023/01/28 22:38:21;;;;;;;56.97;36.85;;;;;;;-6.52;100.00;102922.47;10479181;28;20051;-77
2023/01/28 22:43:23;;;;;;;54.73;34.70;;;;;;;-6.67;100.00;102910.91;10487618;28;20180;-75
2023/01/28 22:48:23;;;;;;;56.92;33.22;;;;;;;-6.51;100.00;102916.69;10493398;28;20044;-76
2023/01/28 22:53:24;;;;;;;66.33;39.70;;;;;;;-6.40;100.00;102921.75;10479847;28;20124;-75
2023/01/28 22:58:24;;;;;;;57.33;35.00;;;;;;;-6.49;100.00;102906.00;10480936;28;20055;-76
2023/01/28 23:03:25;;;;;;;63.37;39.37;;;;;;;-6.32;100.00;102922.88;10513456;28;20062;-76
2023/01/28 23:08:26;;;;;;;61.77;36.00;;;;;;;-6.28;100.00;102907.34;10493000;28;20033;-76
2023/01/28 23:24:17;;;;;;;68.75;40.88;;;;;;;-6.26;100.00;102917.78;10487940;28;20033;-76
2023/01/28 23:24:20;;;;;;;59.13;35.45;;;;;;;-6.33;100.00;102905.72;10489165;28;20119;-76
2023/01/28 23:29:22;;;;;;;63.10;38.20;;;;;;;-6.43;100.00;102903.47;10484779;28;20112;-77
2023/01/28 23:34:23;;;;;;;61.15;41.25;;;;;;;-6.41;100.00;102898.56;10488177;28;20043;-76
2023/01/28 23:39:23;;;;;;;67.70;43.57;;;;;;;-6.43;100.00;102890.72;10487375;28;20039;-76
2023/01/28 23:44:24;;;;;;;58.57;39.17;;;;;;;-6.49;100.00;102890.72;10489652;28;20036;-76
2023/01/28 23:49:25;;;;;;;62.20;41.00;;;;;;;-6.49;100.00;102885.63;10469132;28;20032;-76
2023/01/28 23:54:25;;;;;;;67.40;41.23;;;;;;;-6.50;100.00;102881.22;10512649;28;20488;-76
2023/01/28 23:59:26;;;;;;;79.17;43.17;;;;;;;-6.51;100.00;102876.81;10488249;28;20082;-76
